createdAt,value
2024-02-01T00:00:58.444Z,-0.76
2024-02-01T00:03:29.501Z,-0.85
2024-02-01T00:06:00.639Z,-0.92
2024-02-01T00:08:31.839Z,-0.99
2024-02-01T00:11:02.863Z,-1.07
2024-02-01T00:13:33.890Z,-1.16
2024-02-01T00:16:05.094Z,-1.21
2024-02-01T00:18:36.336Z,-1.24
2024-02-01T00:21:07.993Z,-1.27
2024-02-01T00:23:39.107Z,-1.32
2024-02-01T00:26:10.120Z,-1.36
2024-02-01T00:28:41.189Z,-1.41
2024-02-01T00:31:12.224Z,-1.44
2024-02-01T00:33:43.731Z,-1.42
2024-02-01T00:36:15.921Z,-1.40
2024-02-01T00:38:47.086Z,-1.35
2024-02-01T00:41:19.118Z,-1.26
2024-02-01T00:43:50.297Z,-1.18
2024-02-01T00:46:21.635Z,-1.14
2024-02-01T00:48:52.822Z,-1.14
2024-02-01T00:51:24.053Z,-1.17
2024-02-01T00:53:55.069Z,-1.22
2024-02-01T00:56:26.127Z,-1.27
2024-02-01T00:58:57.139Z,-1.29
2024-02-01T01:01:28.477Z,-1.33
2024-02-01T01:03:59.588Z,-1.40
2024-02-01T01:06:30.694Z,-1.47
2024-02-01T01:09:02.307Z,-1.53
2024-02-01T01:11:33.903Z,-1.58
2024-02-01T01:14:05.067Z,-1.60
2024-02-01T01:16:36.072Z,-1.66
2024-02-01T01:19:07.392Z,-1.69
2024-02-01T01:21:38.640Z,-1.70
2024-02-01T01:24:09.959Z,-1.74
2024-02-01T01:26:41.138Z,-1.75
2024-02-01T01:29:12.317Z,-1.72
2024-02-01T01:31:44.101Z,-1.63
2024-02-01T01:34:15.327Z,-1.59
2024-02-01T01:36:46.456Z,-1.56
2024-02-01T01:39:17.501Z,-1.49
2024-02-01T01:41:48.788Z,-1.45
2024-02-01T01:44:19.821Z,-1.47
2024-02-01T01:46:51.088Z,-1.49
2024-02-01T01:49:22.817Z,-1.53
2024-02-01T01:51:54.557Z,-1.58
2024-02-01T01:54:27.613Z,-1.60
2024-02-01T01:56:59.670Z,-1.61
2024-02-01T01:59:31.693Z,-1.69
2024-02-01T02:02:04.025Z,-1.78
2024-02-01T02:04:35.145Z,-1.85
2024-02-01T02:07:06.579Z,-1.90
2024-02-01T02:09:37.602Z,-1.97
2024-02-01T02:12:11.857Z,-2.03
2024-02-01T02:14:42.991Z,-2.12
2024-02-01T02:17:14.062Z,-2.13
2024-02-01T02:19:45.130Z,-2.07
2024-02-01T02:22:16.741Z,-2.01
2024-02-01T02:24:47.769Z,-1.92
2024-02-01T02:27:21.593Z,-1.85
2024-02-01T02:29:52.645Z,-1.81
2024-02-01T02:32:24.540Z,-1.74
2024-02-01T02:34:55.680Z,-1.66
2024-02-01T02:37:26.712Z,-1.59
2024-02-01T02:39:57.717Z,-1.58
2024-02-01T02:42:28.776Z,-1.57
2024-02-01T02:45:00.052Z,-1.58
2024-02-01T02:47:31.194Z,-1.65
2024-02-01T02:50:02.310Z,-1.74
2024-02-01T02:52:33.313Z,-1.82
2024-02-01T02:55:04.561Z,-1.88
2024-02-01T02:57:36.211Z,-1.86
2024-02-01T03:00:11.587Z,-1.88
2024-02-01T03:02:43.466Z,-1.93
2024-02-01T03:05:16.522Z,-1.94
2024-02-01T03:07:47.911Z,-1.97
2024-02-01T03:10:19.905Z,-2.06
2024-02-01T03:12:52.616Z,-2.10
2024-02-01T03:15:23.700Z,-2.10
2024-02-01T03:17:54.948Z,-2.08
2024-02-01T03:20:26.578Z,-2.03
2024-02-01T03:22:57.789Z,-1.97
2024-02-01T03:25:31.895Z,-1.94
2024-02-01T03:28:05.857Z,-1.94
2024-02-01T03:30:39.181Z,-1.97
2024-02-01T03:33:10.253Z,-1.96
2024-02-01T03:35:41.332Z,-1.98
2024-02-01T03:38:16.743Z,-1.97
2024-02-01T03:40:48.106Z,-2.02
2024-02-01T03:43:19.128Z,-2.02
2024-02-01T03:45:51.540Z,-2.04
2024-02-01T03:48:22.709Z,-2.09
2024-02-01T03:50:54.569Z,-2.20
2024-02-01T03:53:25.622Z,-2.31
2024-02-01T03:55:56.768Z,-2.38
2024-02-01T03:58:28.556Z,-2.42
2024-02-01T04:01:01.579Z,-2.39
2024-02-01T04:03:32.879Z,-2.31
2024-02-01T04:06:04.013Z,-2.21
2024-02-01T04:08:35.102Z,-2.09
2024-02-01T04:11:06.201Z,-2.05
2024-02-01T04:13:37.194Z,-1.97
2024-02-01T04:16:09.414Z,-1.94
2024-02-01T04:18:40.688Z,-1.92
2024-02-01T04:21:12.905Z,-1.93
2024-02-01T04:23:43.990Z,-1.93
2024-02-01T04:26:17.114Z,-1.93
2024-02-01T04:28:53.429Z,-1.93
2024-02-01T04:31:24.796Z,-1.91
2024-02-01T04:33:59.397Z,-1.89
2024-02-01T04:36:31.208Z,-1.87
2024-02-01T04:39:04.894Z,-1.88
2024-02-01T04:41:36.134Z,-1.89
2024-02-01T04:44:09.588Z,-1.88
2024-02-01T04:46:40.589Z,-1.93
2024-02-01T04:49:14.788Z,-1.97
2024-02-01T04:51:46.016Z,-2.09
2024-02-01T04:54:17.088Z,-2.14
2024-02-01T04:56:48.175Z,-2.13
2024-02-01T04:59:19.197Z,-2.11
2024-02-01T05:01:50.294Z,-2.07
2024-02-01T05:04:21.452Z,-2.01
2024-02-01T05:06:52.848Z,-1.99
2024-02-01T05:09:27.470Z,-1.95
2024-02-01T05:11:58.974Z,-1.95
2024-02-01T05:14:30.026Z,-1.94
2024-02-01T05:17:01.163Z,-1.98
2024-02-01T05:19:32.457Z,-2.04
2024-02-01T05:22:03.597Z,-2.09
2024-02-01T05:24:34.614Z,-2.12
2024-02-01T05:27:09.846Z,-2.11
2024-02-01T05:29:51.198Z,-2.08
2024-02-01T05:32:22.497Z,-2.06
2024-02-01T05:34:53.788Z,-2.06
2024-02-01T05:37:24.748Z,-2.08
2024-02-01T05:39:56.600Z,-2.16
2024-02-01T05:42:28.336Z,-2.26
2024-02-01T05:44:59.768Z,-2.28
2024-02-01T05:47:34.009Z,-2.29
2024-02-01T05:50:05.944Z,-2.30
2024-02-01T05:52:39.437Z,-2.22
2024-02-01T05:55:14.633Z,-2.14
2024-02-01T05:57:45.882Z,-2.04
2024-02-01T06:00:24.464Z,-1.95
2024-02-01T06:02:56.423Z,-1.87
2024-02-01T06:05:27.602Z,-1.84
2024-02-01T06:07:58.578Z,-1.81
2024-02-01T06:10:29.592Z,-1.86
2024-02-01T06:13:01.034Z,-1.88
2024-02-01T06:15:32.550Z,-1.89
2024-02-01T06:18:03.717Z,-1.92
2024-02-01T06:20:36.105Z,-1.99
2024-02-01T06:23:07.929Z,-2.04
2024-02-01T06:25:40.088Z,-2.06
2024-02-01T06:28:12.301Z,-2.03
2024-02-01T06:30:43.818Z,-2.04
2024-02-01T06:33:14.912Z,-2.05
2024-02-01T06:35:46.766Z,-2.08
2024-02-01T06:38:24.538Z,-2.04
2024-02-01T06:41:08.756Z,-1.96
2024-02-01T06:44:03.233Z,-1.90
2024-02-01T06:47:02.472Z,-1.82
2024-02-01T06:50:01.246Z,-1.75
2024-02-01T06:52:40.947Z,-1.67
2024-02-01T06:55:45.349Z,-1.60
2024-02-01T06:58:17.710Z,-1.56
2024-02-01T07:01:03.761Z,-1.55
2024-02-01T07:03:46.301Z,-1.49
2024-02-01T07:06:29.936Z,-1.49
2024-02-01T07:09:18.585Z,-1.49
2024-02-01T07:12:11.381Z,-1.45
2024-02-01T07:14:49.950Z,-1.41
2024-02-01T07:17:29.594Z,-1.40
2024-02-01T07:20:05.390Z,-1.41
2024-02-01T07:22:51.496Z,-1.38
2024-02-01T07:25:38.356Z,-1.30
2024-02-01T07:28:27.103Z,-1.15
2024-02-01T07:31:15.857Z,-1.00
2024-02-01T07:34:04.695Z,-0.91
2024-02-01T07:36:55.771Z,-0.77
2024-02-01T07:39:44.875Z,-0.52
2024-02-01T07:42:33.594Z,-0.29
2024-02-01T07:45:22.560Z,-0.08
2024-02-01T07:48:11.481Z,0.10
2024-02-01T07:50:59.994Z,0.29
2024-02-01T07:53:48.425Z,0.45
2024-02-01T07:56:36.002Z,0.63
2024-02-01T07:59:11.746Z,0.76
2024-02-01T08:02:03.292Z,0.85
2024-02-01T08:04:48.398Z,0.91
2024-02-01T08:07:36.799Z,0.99
2024-02-01T08:10:10.336Z,1.06
2024-02-01T08:12:41.578Z,1.14
2024-02-01T08:15:20.290Z,1.26
2024-02-01T08:17:53.586Z,1.33
2024-02-01T08:20:24.872Z,1.44
2024-02-01T08:22:56.066Z,1.60
2024-02-01T08:25:27.073Z,1.77
2024-02-01T08:27:58.104Z,1.95
2024-02-01T08:30:32.985Z,2.11
2024-02-01T08:33:06.041Z,2.27
2024-02-01T08:35:38.811Z,2.41
2024-02-01T08:38:10.887Z,2.50
2024-02-01T08:40:42.562Z,2.64
2024-02-01T08:43:15.527Z,3.15
2024-02-01T08:45:47.676Z,3.44
2024-02-01T08:48:19.901Z,3.64
2024-02-01T08:50:53.908Z,3.87
2024-02-01T08:53:24.966Z,4.05
2024-02-01T08:55:56.224Z,4.14
2024-02-01T08:58:29.097Z,4.20
2024-02-01T09:01:00.133Z,4.24
2024-02-01T09:03:31.747Z,4.28
2024-02-01T09:06:16.911Z,4.32
2024-02-01T09:08:48.185Z,4.36
2024-02-01T09:11:19.986Z,4.38
2024-02-01T09:13:52.438Z,4.41
2024-02-01T09:16:32.481Z,4.44
2024-02-01T09:19:04.505Z,4.46
2024-02-01T09:21:36.202Z,4.47
2024-02-01T09:24:08.333Z,4.47
2024-02-01T09:26:42.716Z,4.52
2024-02-01T09:29:13.941Z,4.59
2024-02-01T09:31:45.928Z,4.67
2024-02-01T09:34:17.850Z,4.80
2024-02-01T09:36:52.256Z,4.96
2024-02-01T09:39:23.436Z,5.09
2024-02-01T09:41:56.078Z,5.23
2024-02-01T09:44:28.129Z,5.34
2024-02-01T09:47:05.935Z,5.47
2024-02-01T09:49:39.687Z,5.60
2024-02-01T09:52:11.160Z,5.74
2024-02-01T09:54:44.932Z,5.91
2024-02-01T09:57:16.963Z,6.13
2024-02-01T09:59:48.133Z,6.39
2024-02-01T10:02:19.797Z,6.61
2024-02-01T10:04:52.701Z,6.82
2024-02-01T10:07:23.928Z,7.07
2024-02-01T10:09:55.753Z,7.35
2024-02-01T10:12:27.658Z,7.59
2024-02-01T10:14:59.198Z,7.81
2024-02-01T10:17:30.362Z,8.06
2024-02-01T10:20:01.920Z,8.27
2024-02-01T10:22:34.532Z,8.42
2024-02-01T10:25:05.976Z,8.51
2024-02-01T10:27:41.623Z,8.61
2024-02-01T10:30:14.469Z,8.66
2024-02-01T10:32:48.915Z,8.68
2024-02-01T10:35:21.299Z,8.69
2024-02-01T10:37:55.703Z,8.67
2024-02-01T10:40:32.193Z,8.65
2024-02-01T10:43:03.979Z,8.61
2024-02-01T10:45:38.219Z,8.59
2024-02-01T10:48:14.942Z,8.54
2024-02-01T10:50:46.953Z,8.48
2024-02-01T10:53:19.036Z,8.45
2024-02-01T10:55:51.547Z,8.44
2024-02-01T10:58:23.373Z,8.40
2024-02-01T11:00:57.439Z,8.34
2024-02-01T11:03:30.916Z,8.29
2024-02-01T11:06:02.497Z,8.25
2024-02-01T11:08:39.887Z,8.27
2024-02-01T11:11:18.504Z,8.22
2024-02-01T11:14:10.426Z,8.14
2024-02-01T11:16:43.064Z,8.05
2024-02-01T11:19:20.210Z,7.96
2024-02-01T11:21:52.795Z,7.88
2024-02-01T11:24:26.273Z,7.80
2024-02-01T11:26:59.340Z,7.72
2024-02-01T11:29:36.108Z,7.65
2024-02-01T11:32:06.958Z,7.60
2024-02-01T11:34:38.406Z,7.55
2024-02-01T11:37:12.525Z,7.50
2024-02-01T11:39:45.325Z,7.46
2024-02-01T11:42:23.998Z,7.43
2024-02-01T11:45:05.728Z,7.42
2024-02-01T11:47:37.745Z,7.39
2024-02-01T11:50:11.233Z,7.35
2024-02-01T11:52:46.214Z,7.29
2024-02-01T11:55:18.911Z,7.23
2024-02-01T11:57:58.348Z,7.17
2024-02-01T12:00:43.974Z,7.10
2024-02-01T12:03:21.786Z,7.03
2024-02-01T12:05:54.378Z,6.96
2024-02-01T12:08:25.690Z,6.93
2024-02-01T12:10:57.134Z,6.92
2024-02-01T12:13:28.245Z,6.94
2024-02-01T12:15:59.637Z,6.94
2024-02-01T12:18:32.966Z,6.94
2024-02-01T12:21:04.303Z,6.95
2024-02-01T12:23:36.066Z,6.95
2024-02-01T12:26:07.746Z,6.95
2024-02-01T12:28:39.146Z,6.95
2024-02-01T12:31:11.437Z,6.96
2024-02-01T12:33:43.505Z,6.97
2024-02-01T12:36:14.743Z,6.98
2024-02-01T12:38:46.767Z,6.97
2024-02-01T12:41:18.601Z,6.94
2024-02-01T12:43:53.186Z,6.93
2024-02-01T12:46:25.916Z,6.92
2024-02-01T12:48:57.373Z,6.91
2024-02-01T12:51:29.480Z,6.89
2024-02-01T12:54:04.069Z,6.88
2024-02-01T12:56:36.972Z,6.90
2024-02-01T12:59:11.881Z,6.92
2024-02-01T13:01:43.320Z,6.93
2024-02-01T13:04:14.350Z,6.93
2024-02-01T13:06:46.512Z,6.90
2024-02-01T13:09:30.420Z,6.87
2024-02-01T13:12:01.981Z,6.84
2024-02-01T13:14:35.668Z,6.82
2024-02-01T13:17:12.783Z,6.82
2024-02-01T13:19:43.946Z,6.83
2024-02-01T13:22:15.020Z,6.84
2024-02-01T13:24:47.795Z,6.84
2024-02-01T13:27:19.060Z,6.85
2024-02-01T13:29:50.132Z,6.86
2024-02-01T13:32:21.364Z,6.84
2024-02-01T13:34:52.675Z,6.84
2024-02-01T13:37:23.935Z,6.83
2024-02-01T13:39:55.113Z,6.83
2024-02-01T13:42:26.297Z,6.82
2024-02-01T13:44:57.492Z,6.82
2024-02-01T13:47:28.656Z,6.80
2024-02-01T13:50:00.188Z,6.79
2024-02-01T13:52:31.526Z,6.76
2024-02-01T13:55:02.601Z,6.76
2024-02-01T13:57:34.780Z,6.76
2024-02-01T14:00:16.290Z,6.77
2024-02-01T14:02:49.448Z,6.77
2024-02-01T14:05:22.871Z,6.80
2024-02-01T14:07:55.115Z,6.86
2024-02-01T14:10:27.147Z,6.93
2024-02-01T14:12:58.645Z,6.97
2024-02-01T14:15:29.688Z,6.98
2024-02-01T14:18:02.334Z,6.99
2024-02-01T14:20:33.757Z,6.96
2024-02-01T14:23:04.838Z,6.94
2024-02-01T14:25:36.007Z,6.93
2024-02-01T14:28:07.661Z,6.92
2024-02-01T14:30:38.804Z,6.91
2024-02-01T14:33:10.198Z,6.88
2024-02-01T14:35:41.373Z,6.85
2024-02-01T14:38:12.391Z,6.83
2024-02-01T14:40:44.210Z,6.78
2024-02-01T14:43:15.238Z,6.74
2024-02-01T14:45:46.984Z,6.71
2024-02-01T14:48:18.248Z,6.65
2024-02-01T14:50:49.376Z,6.60
2024-02-01T14:53:20.410Z,6.55
2024-02-01T14:55:54.465Z,6.48
2024-02-01T14:58:25.645Z,6.40
2024-02-01T15:00:58.241Z,6.35
2024-02-01T15:03:29.512Z,6.33
2024-02-01T15:06:00.760Z,6.29
2024-02-01T15:08:32.502Z,6.22
2024-02-01T15:11:03.567Z,6.20
2024-02-01T15:13:34.583Z,6.22
2024-02-01T15:16:09.140Z,6.28
2024-02-01T15:18:41.937Z,6.32
2024-02-01T15:21:14.402Z,6.36
2024-02-01T15:23:46.533Z,6.33
2024-02-01T15:26:17.820Z,6.34
2024-02-01T15:28:48.865Z,6.29
2024-02-01T15:31:23.518Z,6.20
2024-02-01T15:33:55.328Z,6.09
2024-02-01T15:36:26.884Z,6.04
2024-02-01T15:38:57.951Z,6.01
2024-02-01T15:41:29.530Z,5.97
2024-02-01T15:44:01.743Z,5.95
2024-02-01T15:46:34.006Z,5.90
2024-02-01T15:49:05.333Z,5.81
2024-02-01T15:51:36.489Z,5.73
2024-02-01T15:54:07.812Z,5.68
2024-02-01T15:56:39.783Z,5.63
2024-02-01T15:59:10.817Z,5.60
2024-02-01T16:01:41.918Z,5.56
2024-02-01T16:04:13.202Z,5.51
2024-02-01T16:06:44.479Z,5.48
2024-02-01T16:09:15.930Z,5.43
2024-02-01T16:11:47.653Z,5.40
2024-02-01T16:14:23.491Z,5.41
2024-02-01T16:16:55.542Z,5.43
2024-02-01T16:19:42.912Z,5.50
2024-02-01T16:22:14.378Z,5.55
2024-02-01T16:25:02.098Z,5.55
2024-02-01T16:27:59.692Z,5.58
2024-02-01T16:30:57.406Z,5.55
2024-02-01T16:33:32.222Z,5.53
2024-02-01T16:36:07.947Z,5.49
2024-02-01T16:38:45.343Z,5.43
2024-02-01T16:41:32.698Z,5.37
2024-02-01T16:44:04.380Z,5.30
2024-02-01T16:46:49.716Z,5.23
2024-02-01T16:49:22.967Z,5.18
2024-02-01T16:51:54.798Z,5.14
2024-02-01T16:54:25.983Z,5.12
2024-02-01T16:56:59.897Z,5.06
2024-02-01T16:59:31.946Z,5.00
2024-02-01T17:02:03.053Z,4.96
2024-02-01T17:04:41.039Z,4.96
2024-02-01T17:07:25.442Z,5.00
2024-02-01T17:10:00.886Z,5.02
2024-02-01T17:12:32.592Z,5.02
2024-02-01T17:15:05.250Z,5.07
2024-02-01T17:17:39.964Z,5.11
2024-02-01T17:20:13.685Z,5.11
2024-02-01T17:22:46.438Z,5.07
2024-02-01T17:25:58.872Z,5.00
2024-02-01T17:28:40.441Z,4.87
2024-02-01T17:31:16.386Z,4.77
2024-02-01T17:33:57.796Z,4.74
2024-02-01T17:36:33.774Z,4.68
2024-02-01T17:39:07.949Z,4.61
2024-02-01T17:41:45.310Z,4.50
2024-02-01T17:44:35.442Z,4.33
2024-02-01T17:47:09.236Z,4.24
2024-02-01T17:49:49.839Z,4.15
2024-02-01T17:52:52.076Z,4.03
2024-02-01T17:55:28.942Z,3.97
2024-02-01T17:57:59.527Z,3.95
2024-02-01T18:00:32.116Z,3.95
2024-02-01T18:03:04.861Z,3.98
2024-02-01T18:05:36.207Z,3.96
2024-02-01T18:08:09.615Z,3.89
2024-02-01T18:10:45.764Z,3.88
2024-02-01T18:13:16.995Z,3.92
2024-02-01T18:16:08.719Z,3.93
2024-02-01T18:18:43.011Z,3.88
2024-02-01T18:21:23.532Z,3.79
2024-02-01T18:23:56.852Z,3.66
2024-02-01T18:26:29.378Z,3.57
2024-02-01T18:29:00.622Z,3.52
2024-02-01T18:31:31.896Z,3.44
2024-02-01T18:34:06.270Z,3.31
2024-02-01T18:36:40.080Z,3.25
2024-02-01T18:39:14.799Z,3.25
2024-02-01T18:41:51.532Z,3.26
2024-02-01T18:44:28.914Z,3.29
2024-02-01T18:47:02.743Z,3.30
2024-02-01T18:49:37.725Z,3.29
2024-02-01T18:52:10.394Z,3.31
2024-02-01T18:54:41.487Z,3.25
2024-02-01T18:57:22.320Z,3.22
2024-02-01T18:59:58.234Z,3.23
2024-02-01T19:02:54.559Z,3.25
2024-02-01T19:05:27.357Z,3.27
2024-02-01T19:08:03.686Z,3.30
2024-02-01T19:10:47.208Z,3.29
2024-02-01T19:13:54.503Z,3.27
2024-02-01T19:16:26.836Z,3.30
2024-02-01T19:19:05.793Z,3.32
2024-02-01T19:21:38.211Z,3.34
2024-02-01T19:24:19.739Z,3.37
2024-02-01T19:26:50.993Z,3.45
2024-02-01T19:29:23.013Z,3.53
2024-02-01T19:31:54.376Z,3.60
2024-02-01T19:34:32.795Z,3.64
2024-02-01T19:37:03.907Z,3.69
2024-02-01T19:39:40.238Z,3.74
2024-02-01T19:42:11.506Z,3.78
2024-02-01T19:44:42.581Z,3.78
2024-02-01T19:47:13.959Z,3.74
2024-02-01T19:49:45.444Z,3.69
2024-02-01T19:52:16.526Z,3.64
2024-02-01T19:54:47.595Z,3.55
2024-02-01T19:57:21.928Z,3.48
2024-02-01T19:59:53.820Z,3.41
2024-02-01T20:02:24.917Z,3.34
2024-02-01T20:04:56.112Z,3.29
2024-02-01T20:07:27.718Z,3.23
2024-02-01T20:09:59.229Z,3.14
2024-02-01T20:12:30.300Z,3.10
2024-02-01T20:15:01.758Z,3.03
2024-02-01T20:17:33.093Z,3.01
2024-02-01T20:20:07.404Z,2.99
2024-02-01T20:22:42.828Z,2.93
2024-02-01T20:25:25.029Z,2.90
2024-02-01T20:27:58.404Z,2.89
2024-02-01T20:30:30.147Z,2.84
2024-02-01T20:33:02.988Z,2.78
2024-02-01T20:35:38.631Z,2.71
2024-02-01T20:38:15.164Z,2.62
2024-02-01T20:40:49.712Z,2.57
2024-02-01T20:43:21.842Z,2.50
2024-02-01T20:45:58.922Z,2.43
2024-02-01T20:48:42.307Z,2.33
2024-02-01T20:51:42.320Z,2.21
2024-02-01T20:54:13.875Z,2.12
2024-02-01T20:56:45.000Z,2.06
2024-02-01T20:59:34.194Z,2.04
2024-02-01T21:02:10.780Z,2.09
2024-02-01T21:04:41.935Z,2.11
2024-02-01T21:07:17.340Z,2.10
2024-02-01T21:09:48.412Z,2.09
2024-02-01T21:12:20.360Z,1.98
2024-02-01T21:14:53.046Z,1.89
2024-02-01T21:17:27.263Z,1.87
2024-02-01T21:19:59.582Z,1.83
2024-02-01T21:22:36.091Z,1.80
2024-02-01T21:25:27.662Z,1.77
2024-02-01T21:27:58.941Z,1.73
2024-02-01T21:30:30.037Z,1.71
2024-02-01T21:33:01.824Z,1.72
2024-02-01T21:35:48.757Z,1.80
2024-02-01T21:38:20.720Z,1.81
2024-02-01T21:40:53.618Z,1.81
2024-02-01T21:43:26.316Z,1.86
2024-02-01T21:46:00.828Z,1.85
2024-02-01T21:48:32.015Z,1.72
2024-02-01T21:51:03.224Z,1.64
2024-02-01T21:53:34.371Z,1.54
2024-02-01T21:56:05.734Z,1.51
2024-02-01T21:58:36.804Z,1.45
2024-02-01T22:01:08.202Z,1.45
2024-02-01T22:03:45.093Z,1.44
2024-02-01T22:06:14.481Z,1.40
2024-02-01T22:08:44.041Z,1.35
2024-02-01T22:11:15.229Z,1.26
2024-02-01T22:13:46.402Z,1.21
2024-02-01T22:16:17.603Z,1.16
2024-02-01T22:18:48.759Z,1.14
2024-02-01T22:21:20.011Z,1.20
2024-02-01T22:23:51.260Z,1.22
2024-02-01T22:26:22.331Z,1.22
2024-02-01T22:28:53.789Z,1.20
2024-02-01T22:31:25.475Z,1.22
2024-02-01T22:33:56.644Z,1.27
2024-02-01T22:36:27.850Z,1.33
2024-02-01T22:38:59.003Z,1.42
2024-02-01T22:41:30.071Z,1.49
2024-02-01T22:44:01.116Z,1.51
2024-02-01T22:46:32.188Z,1.51
2024-02-01T22:49:03.334Z,1.48
2024-02-01T22:51:34.670Z,1.47
2024-02-01T22:54:05.868Z,1.40
2024-02-01T22:56:37.013Z,1.29
2024-02-01T22:59:08.105Z,1.16
2024-02-01T23:01:39.286Z,1.04
2024-02-01T23:04:10.453Z,1.00
2024-02-01T23:06:41.707Z,0.99
2024-02-01T23:09:13.231Z,1.02
2024-02-01T23:11:45.005Z,1.04
2024-02-01T23:14:16.114Z,1.08
2024-02-01T23:16:47.246Z,1.08
2024-02-01T23:19:18.349Z,1.10
2024-02-01T23:21:54.002Z,1.14
2024-02-01T23:24:25.650Z,1.20
2024-02-01T23:26:56.846Z,1.21
2024-02-01T23:29:27.865Z,1.23
2024-02-01T23:31:58.987Z,1.20
2024-02-01T23:34:31.349Z,1.21
2024-02-01T23:37:02.599Z,1.24
2024-02-01T23:39:33.799Z,1.30
2024-02-01T23:42:05.152Z,1.37
2024-02-01T23:44:36.328Z,1.48
2024-02-01T23:47:07.760Z,1.58
2024-02-01T23:49:39.149Z,1.68
2024-02-01T23:52:11.511Z,1.70
2024-02-01T23:54:42.577Z,1.74
2024-02-01T23:57:13.779Z,1.74
2024-02-01T23:59:44.853Z,1.73
